createdAt,value
2022-08-03T00:00:38.747Z,3.00
2022-08-03T00:03:07.070Z,3.00
2022-08-03T00:05:35.365Z,3.00
2022-08-03T00:08:04.487Z,2.80
2022-08-03T00:10:32.832Z,3.00
2022-08-03T00:13:01.176Z,3.00
2022-08-03T00:15:29.833Z,2.90
2022-08-03T00:17:58.192Z,3.10
2022-08-03T00:20:26.920Z,3.00
2022-08-03T00:22:55.613Z,3.30
2022-08-03T00:25:23.919Z,3.10
2022-08-03T00:27:52.589Z,3.10
2022-08-03T00:30:21.046Z,3.20
2022-08-03T00:32:49.612Z,3.00
2022-08-03T00:35:35.102Z,2.70
2022-08-03T00:38:06.415Z,2.70
2022-08-03T00:40:35.265Z,2.70
2022-08-03T00:43:07.544Z,2.90
2022-08-03T00:45:44.819Z,2.60
2022-08-03T00:48:19.759Z,2.90
2022-08-03T00:51:01.880Z,2.80
2022-08-03T00:53:30.891Z,2.90
2022-08-03T00:55:59.669Z,3.20
2022-08-03T00:58:28.366Z,3.10
2022-08-03T01:00:56.806Z,2.90
2022-08-03T01:03:25.057Z,2.80
2022-08-03T01:06:04.743Z,2.70
2022-08-03T01:08:54.852Z,2.90
2022-08-03T01:11:29.481Z,2.80
2022-08-03T01:14:19.299Z,3.10
2022-08-03T01:16:55.307Z,2.60
2022-08-03T01:20:05.213Z,3.40
2022-08-03T01:23:21.137Z,2.90
2022-08-03T01:26:22.567Z,2.70
2022-08-03T01:29:22.921Z,2.90
2022-08-03T01:32:54.525Z,3.00
2022-08-03T01:34:59.428Z,2.90
2022-08-03T01:37:52.096Z,3.10
2022-08-03T01:40:22.461Z,3.00
2022-08-03T01:42:52.010Z,3.00
2022-08-03T01:45:22.319Z,3.20
2022-08-03T01:47:53.221Z,3.10
2022-08-03T01:50:25.368Z,2.80
2022-08-03T01:52:56.702Z,3.10
2022-08-03T01:55:29.192Z,3.10
2022-08-03T01:58:05.535Z,2.90
2022-08-03T02:00:39.792Z,3.10
2022-08-03T02:03:10.834Z,3.20
2022-08-03T02:05:41.308Z,3.00
2022-08-03T02:08:13.116Z,2.80
2022-08-03T02:10:43.449Z,3.20
2022-08-03T02:13:12.937Z,3.00
2022-08-03T02:15:42.810Z,3.00
2022-08-03T02:20:42.234Z,2.90
2022-08-03T02:23:10.738Z,2.90
2022-08-03T02:25:53.350Z,2.90
2022-08-03T02:28:25.648Z,2.90
2022-08-03T02:30:56.229Z,3.20
2022-08-03T02:33:32.398Z,2.70
2022-08-03T02:36:02.418Z,2.90
2022-08-03T02:38:39.093Z,3.00
2022-08-03T02:41:17.844Z,3.20
2022-08-03T02:44:05.739Z,3.00
2022-08-03T02:46:39.043Z,3.20
2022-08-03T02:49:50.085Z,3.00
2022-08-03T02:54:27.310Z,3.10
2022-08-03T02:56:58.803Z,3.10
2022-08-03T02:59:31.341Z,3.10
2022-08-03T03:02:02.476Z,3.40
2022-08-03T03:04:33.170Z,3.60
2022-08-03T03:07:04.409Z,3.40
2022-08-03T03:09:39.945Z,3.20
2022-08-03T03:12:11.694Z,3.10
2022-08-03T03:14:40.922Z,3.60
2022-08-03T03:17:11.666Z,3.70
2022-08-03T03:19:41.707Z,3.40
2022-08-03T03:22:11.092Z,3.40
2022-08-03T03:24:41.907Z,3.50
2022-08-03T03:27:10.675Z,3.70
2022-08-03T03:29:45.223Z,3.20
2022-08-03T03:32:14.527Z,3.20
2022-08-03T03:34:44.243Z,3.40
2022-08-03T03:37:13.167Z,3.50
2022-08-03T03:39:41.785Z,3.30
2022-08-03T03:42:10.235Z,3.50
2022-08-03T03:44:38.856Z,3.50
2022-08-03T03:47:07.570Z,3.50
2022-08-03T03:49:36.985Z,3.60
2022-08-03T03:52:05.605Z,3.50
2022-08-03T03:54:45.503Z,3.50
2022-08-03T03:59:42.993Z,3.80
2022-08-03T04:02:12.536Z,3.80
2022-08-03T04:04:59.268Z,3.20
2022-08-03T04:07:46.712Z,3.10
2022-08-03T04:10:42.333Z,3.50
2022-08-03T04:13:13.808Z,3.50
2022-08-03T04:15:43.711Z,3.60
2022-08-03T04:18:14.939Z,3.50
2022-08-03T04:20:48.012Z,3.80
2022-08-03T04:23:20.716Z,3.50
2022-08-03T04:25:51.657Z,3.50
2022-08-03T04:28:30.578Z,3.30
2022-08-03T04:31:03.664Z,3.40
2022-08-03T04:33:35.011Z,3.50
2022-08-03T04:36:07.984Z,3.70
2022-08-03T04:38:44.499Z,3.50
2022-08-03T04:41:14.227Z,3.10
2022-08-03T04:43:42.989Z,3.50
2022-08-03T04:46:16.750Z,3.50
2022-08-03T04:48:46.435Z,3.50
2022-08-03T04:51:15.350Z,3.50
2022-08-03T04:53:44.249Z,3.60
2022-08-03T04:56:12.768Z,3.40
2022-08-03T04:58:41.007Z,3.50
2022-08-03T05:01:09.682Z,3.20
2022-08-03T05:03:38.263Z,3.40
2022-08-03T05:06:11.119Z,3.60
2022-08-03T05:08:46.149Z,3.30
2022-08-03T05:11:16.593Z,3.30
2022-08-03T05:13:45.991Z,3.20
2022-08-03T05:16:14.364Z,3.40
2022-08-03T05:18:43.454Z,3.30
2022-08-03T05:21:17.237Z,3.10
2022-08-03T05:23:45.527Z,3.40
2022-08-03T05:26:13.910Z,4.10
2022-08-03T05:28:49.972Z,4.40
2022-08-03T05:31:19.958Z,3.90
2022-08-03T05:33:49.497Z,3.70
2022-08-03T05:38:46.191Z,3.70
2022-08-03T05:41:21.710Z,3.60
2022-08-03T05:43:54.210Z,3.40
2022-08-03T05:46:23.398Z,3.60
2022-08-03T05:48:52.310Z,3.40
2022-08-03T05:51:20.855Z,3.10
2022-08-03T05:53:49.396Z,3.50
2022-08-03T05:56:17.728Z,3.10
2022-08-03T05:58:47.519Z,3.50
2022-08-03T06:01:17.441Z,3.30
2022-08-03T06:03:46.418Z,3.60
2022-08-03T06:06:16.005Z,3.40
2022-08-03T06:08:45.266Z,4.00
2022-08-03T06:11:13.691Z,3.50
2022-08-03T06:13:42.336Z,3.40
2022-08-03T06:16:11.067Z,3.40
2022-08-03T06:18:40.659Z,3.30
2022-08-03T06:21:15.486Z,3.50
2022-08-03T06:23:54.427Z,3.50
2022-08-03T06:28:55.270Z,3.40
2022-08-03T06:31:32.708Z,3.20
2022-08-03T06:34:34.506Z,3.60
2022-08-03T06:36:58.541Z,3.20
2022-08-03T06:39:30.406Z,3.40
2022-08-03T06:41:59.289Z,3.20
2022-08-03T06:44:27.542Z,3.20
2022-08-03T06:46:55.982Z,3.20
2022-08-03T06:49:24.850Z,3.40
2022-08-03T06:52:06.193Z,2.90
2022-08-03T06:54:36.230Z,3.10
2022-08-03T07:00:07.597Z,2.90
2022-08-03T07:02:21.581Z,2.90
2022-08-03T07:04:50.520Z,2.90
2022-08-03T07:07:19.570Z,3.00
2022-08-03T07:12:29.535Z,2.30
2022-08-03T07:15:02.325Z,2.40
2022-08-03T07:17:32.532Z,2.40
2022-08-03T07:20:02.481Z,2.70
2022-08-03T07:22:30.748Z,2.40
2022-08-03T07:24:59.451Z,2.50
2022-08-03T07:27:29.724Z,2.30
2022-08-03T07:30:00.077Z,2.30
2022-08-03T07:32:31.823Z,2.40
2022-08-03T07:35:01.373Z,2.40
2022-08-03T07:37:31.020Z,2.50
2022-08-03T07:40:00.954Z,2.40
2022-08-03T07:42:29.590Z,2.80
2022-08-03T07:44:58.869Z,2.50
2022-08-03T07:47:35.405Z,2.40
2022-08-03T07:50:06.663Z,2.60
2022-08-03T07:52:49.908Z,2.50
2022-08-03T07:55:26.106Z,2.30
2022-08-03T07:58:23.743Z,2.10
2022-08-03T08:00:53.411Z,2.40
2022-08-03T08:03:24.545Z,2.40
2022-08-03T08:05:53.845Z,2.50
2022-08-03T08:08:22.062Z,2.70
2022-08-03T08:10:57.978Z,2.50
2022-08-03T08:13:27.105Z,2.30
2022-08-03T08:15:55.425Z,2.50
2022-08-03T08:18:24.339Z,2.20
2022-08-03T08:23:41.716Z,2.20
2022-08-03T08:26:11.868Z,2.50
2022-08-03T08:28:40.304Z,2.50
2022-08-03T08:31:08.801Z,2.50
2022-08-03T08:34:02.764Z,2.50
2022-08-03T08:36:25.506Z,2.30
2022-08-03T08:38:53.929Z,2.50
2022-08-03T08:41:22.175Z,2.40
2022-08-03T08:43:50.913Z,2.60
2022-08-03T08:46:23.929Z,2.40
2022-08-03T08:48:54.698Z,2.60
2022-08-03T08:51:50.627Z,2.40
2022-08-03T08:54:22.524Z,2.70
2022-08-03T08:56:52.879Z,3.00
2022-08-03T08:59:22.099Z,2.50
2022-08-03T09:01:50.683Z,2.50
2022-08-03T09:04:19.120Z,2.50
2022-08-03T09:07:10.469Z,2.60
2022-08-03T09:10:04.694Z,2.40
2022-08-03T09:12:42.332Z,2.50
2022-08-03T09:15:17.643Z,2.60
2022-08-03T09:17:50.666Z,3.00
2022-08-03T09:20:21.761Z,3.00
2022-08-03T09:23:01.830Z,2.70
2022-08-03T09:25:30.253Z,2.40
2022-08-03T09:28:12.212Z,2.40
2022-08-03T09:30:43.646Z,2.80
2022-08-03T09:33:15.091Z,2.60
2022-08-03T09:35:54.805Z,2.80
2022-08-03T09:38:26.422Z,2.50
2022-08-03T09:41:00.019Z,2.80
2022-08-03T09:43:45.877Z,2.80
2022-08-03T09:46:14.293Z,2.40
2022-08-03T09:48:42.554Z,2.70
2022-08-03T09:51:32.815Z,2.70
2022-08-03T09:54:05.787Z,2.90
2022-08-03T09:56:45.153Z,2.60
2022-08-03T09:59:23.227Z,2.70
2022-08-03T10:01:52.589Z,2.70
2022-08-03T10:04:22.341Z,2.40
2022-08-03T10:07:09.487Z,3.00
2022-08-03T10:09:38.694Z,2.60
2022-08-03T10:12:12.740Z,2.30
2022-08-03T10:14:44.065Z,2.70
2022-08-03T10:17:12.545Z,2.60
2022-08-03T10:19:44.406Z,2.40
2022-08-03T10:22:14.833Z,2.40
2022-08-03T10:25:00.166Z,2.50
2022-08-03T10:27:33.776Z,2.60
2022-08-03T10:30:05.618Z,2.70
2022-08-03T10:33:49.593Z,2.20
2022-08-03T10:36:20.374Z,2.70
2022-08-03T10:38:53.453Z,2.40
2022-08-03T10:41:25.796Z,2.30
2022-08-03T10:44:18.117Z,2.30
2022-08-03T10:46:48.622Z,2.70
2022-08-03T10:49:35.305Z,2.80
2022-08-03T10:52:31.446Z,2.20
2022-08-03T10:55:11.974Z,2.40
2022-08-03T10:57:52.590Z,2.30
2022-08-03T11:00:30.430Z,2.20
2022-08-03T11:03:01.774Z,2.40
2022-08-03T11:05:32.682Z,2.20
2022-08-03T11:08:32.767Z,2.30
2022-08-03T11:11:23.920Z,2.50
2022-08-03T11:14:17.387Z,2.40
2022-08-03T11:17:14.392Z,2.20
2022-08-03T11:19:57.692Z,2.30
2022-08-03T11:22:51.768Z,2.60
2022-08-03T11:25:53.238Z,2.30
2022-08-03T11:28:41.746Z,2.60
2022-08-03T11:31:49.778Z,2.20
2022-08-03T11:34:15.540Z,2.60
2022-08-03T11:37:22.822Z,2.60
2022-08-03T11:39:54.759Z,2.60
2022-08-03T11:42:27.137Z,2.50
2022-08-03T11:44:58.388Z,2.70
2022-08-03T11:47:29.733Z,2.40
2022-08-03T11:50:02.315Z,2.60
2022-08-03T11:52:39.004Z,2.50
2022-08-03T11:55:12.483Z,2.50
2022-08-03T11:59:10.668Z,2.40
2022-08-03T12:03:02.019Z,2.70
2022-08-03T12:05:40.309Z,2.60
2022-08-03T12:08:10.603Z,2.50
2022-08-03T12:10:41.701Z,2.40
2022-08-03T12:14:45.436Z,2.30
2022-08-03T12:15:59.478Z,2.60
2022-08-03T12:18:27.888Z,2.40
2022-08-03T12:21:06.857Z,2.60
2022-08-03T12:23:37.920Z,2.30
2022-08-03T12:26:09.092Z,2.50
2022-08-03T12:28:38.582Z,2.60
2022-08-03T12:31:09.906Z,2.90
2022-08-03T12:34:05.038Z,2.70
2022-08-03T12:36:35.592Z,2.50
2022-08-03T12:39:09.090Z,2.50
2022-08-03T12:41:40.042Z,2.60
2022-08-03T12:44:09.778Z,2.60
2022-08-03T12:46:45.366Z,2.80
2022-08-03T12:49:19.066Z,2.70
2022-08-03T12:51:47.796Z,2.60
2022-08-03T12:54:36.176Z,2.90
2022-08-03T12:57:07.249Z,2.70
2022-08-03T12:59:45.174Z,2.40
2022-08-03T13:02:24.675Z,2.60
2022-08-03T13:04:54.789Z,2.50
2022-08-03T13:07:23.635Z,3.40
2022-08-03T13:09:54.993Z,2.90
2022-08-03T13:12:26.337Z,3.20
2022-08-03T13:15:00.029Z,2.30
2022-08-03T13:17:28.610Z,2.60
2022-08-03T13:19:57.004Z,2.60
2022-08-03T13:22:29.120Z,2.60
2022-08-03T13:24:58.358Z,2.30
2022-08-03T13:28:04.047Z,2.20
2022-08-03T13:30:27.571Z,2.40
2022-08-03T13:33:00.603Z,2.60
2022-08-03T13:35:29.464Z,2.80
2022-08-03T13:37:57.775Z,2.50
2022-08-03T13:40:30.062Z,2.40
2022-08-03T13:42:59.065Z,2.70
2022-08-03T13:45:27.838Z,2.70
2022-08-03T13:50:24.452Z,2.60
2022-08-03T13:52:52.742Z,2.70
2022-08-03T13:55:21.065Z,3.30
2022-08-03T13:58:02.614Z,2.40
2022-08-03T14:00:35.404Z,2.40
2022-08-03T14:05:43.437Z,2.10
2022-08-03T14:08:12.505Z,2.60
2022-08-03T14:10:43.759Z,2.30
2022-08-03T14:13:17.698Z,2.30
2022-08-03T14:15:49.617Z,2.30
2022-08-03T14:18:27.745Z,2.10
2022-08-03T14:23:34.453Z,2.20
2022-08-03T14:26:02.730Z,1.80
2022-08-03T14:28:31.157Z,2.30
2022-08-03T14:30:59.825Z,2.10
2022-08-03T14:33:30.810Z,2.10
2022-08-03T14:35:59.239Z,2.50
2022-08-03T14:38:27.864Z,2.60
2022-08-03T14:40:57.126Z,2.00
2022-08-03T14:44:01.040Z,2.10
2022-08-03T14:46:32.339Z,4.70
2022-08-03T14:50:31.700Z,3.10
2022-08-03T14:51:53.870Z,2.80
2022-08-03T14:54:23.202Z,2.70
2022-08-03T14:56:51.980Z,2.30
2022-08-03T14:59:20.212Z,2.40
2022-08-03T15:02:02.195Z,2.80
2022-08-03T15:04:32.373Z,2.40
2022-08-03T15:07:00.851Z,2.60
2022-08-03T15:09:29.123Z,2.10
2022-08-03T15:11:57.474Z,2.30
2022-08-03T15:14:32.309Z,2.70
2022-08-03T15:17:03.145Z,2.40
2022-08-03T15:20:02.079Z,2.50
2022-08-03T15:22:20.603Z,2.20
2022-08-03T15:24:53.961Z,2.40
2022-08-03T15:32:38.795Z,2.20
2022-08-03T15:35:07.496Z,2.30
2022-08-03T15:37:35.804Z,3.20
2022-08-03T15:40:07.722Z,2.30
2022-08-03T15:42:41.981Z,2.30
2022-08-03T15:45:11.073Z,2.10
2022-08-03T15:47:41.178Z,2.20
2022-08-03T15:50:10.435Z,2.10
2022-08-03T15:52:39.051Z,1.90
2022-08-03T15:55:08.192Z,2.30
2022-08-03T15:59:04.829Z,2.10
2022-08-03T16:00:33.802Z,2.70
2022-08-03T16:03:02.771Z,2.60
2022-08-03T16:08:03.822Z,2.80
2022-08-03T16:10:33.223Z,2.30
2022-08-03T16:13:01.593Z,2.30
2022-08-03T16:15:29.931Z,2.40
2022-08-03T16:17:59.403Z,2.60
2022-08-03T16:20:34.173Z,2.80
2022-08-03T16:23:10.926Z,2.80
2022-08-03T16:25:41.121Z,2.70
2022-08-03T16:28:17.215Z,3.00
2022-08-03T16:30:46.819Z,3.50
2022-08-03T16:33:17.412Z,3.10
2022-08-03T16:35:47.106Z,2.80
2022-08-03T16:38:19.093Z,2.90
2022-08-03T16:40:52.115Z,2.60
2022-08-03T16:43:22.763Z,2.80
2022-08-03T16:45:51.933Z,3.60
2022-08-03T16:48:20.541Z,3.00
2022-08-03T16:50:49.501Z,3.10
2022-08-03T16:56:10.098Z,2.60
2022-08-03T16:58:41.674Z,2.50
2022-08-03T17:01:21.600Z,2.60
2022-08-03T17:04:02.162Z,2.50
2022-08-03T17:06:37.682Z,2.80
2022-08-03T17:09:08.494Z,2.70
2022-08-03T17:11:44.302Z,2.50
2022-08-03T17:14:22.695Z,2.60
2022-08-03T17:16:53.987Z,2.60
2022-08-03T17:19:24.215Z,3.40
2022-08-03T17:22:04.211Z,3.20
2022-08-03T17:24:40.944Z,2.90
2022-08-03T17:28:42.363Z,3.10
2022-08-03T17:30:15.981Z,3.10
2022-08-03T17:32:56.743Z,2.70
2022-08-03T17:35:36.948Z,2.90
2022-08-03T17:38:11.997Z,3.40
2022-08-03T17:40:48.020Z,3.00
2022-08-03T17:44:08.129Z,3.60
2022-08-03T17:46:10.666Z,3.80
2022-08-03T17:51:49.882Z,5.00
2022-08-03T17:54:31.228Z,4.50
2022-08-03T18:00:34.872Z,6.10
2022-08-03T18:08:26.741Z,7.20
2022-08-03T18:12:09.252Z,7.40
2022-08-03T18:16:07.660Z,8.20
2022-08-03T18:20:03.682Z,8.80
2022-08-03T18:23:55.833Z,9.90
2022-08-03T18:27:49.046Z,8.90
2022-08-03T18:51:43.057Z,11.00
2022-08-03T18:56:01.385Z,13.30
2022-08-03T19:00:02.533Z,12.20
2022-08-03T19:03:54.694Z,9.00
2022-08-03T19:07:37.472Z,6.80
2022-08-03T19:15:51.000Z,5.20
2022-08-03T19:19:43.476Z,5.40
2022-08-03T19:23:34.138Z,6.00
2022-08-03T19:43:06.717Z,7.90
2022-08-03T19:46:56.573Z,7.30
2022-08-03T19:50:46.087Z,8.30
2022-08-03T20:06:29.790Z,6.50
2022-08-03T20:10:20.449Z,7.00
2022-08-03T20:14:09.802Z,7.00
2022-08-03T20:18:00.199Z,6.20
2022-08-03T20:33:49.124Z,7.90
2022-08-03T20:37:38.895Z,8.60
2022-08-03T20:41:31.884Z,8.20
2022-08-03T21:01:57.930Z,5.90
2022-08-03T21:05:48.388Z,5.60
2022-08-03T21:09:44.070Z,6.00
2022-08-03T21:12:55.306Z,4.50
2022-08-03T21:13:09.434Z,9.70
2022-08-03T21:13:43.011Z,5.40
2022-08-03T21:17:41.147Z,6.60
2022-08-03T21:21:33.690Z,5.90
2022-08-03T21:25:24.759Z,5.40
2022-08-03T21:29:16.166Z,4.90
2022-08-03T22:00:09.786Z,4.10
2022-08-03T22:03:59.552Z,4.00
2022-08-03T22:07:48.835Z,4.10
2022-08-03T22:11:38.290Z,3.70
2022-08-03T22:15:27.587Z,3.80
2022-08-03T22:23:26.579Z,4.10
2022-08-03T22:27:14.706Z,4.00
2022-08-03T22:31:30.593Z,3.60
2022-08-03T22:39:14.880Z,4.10
2022-08-03T22:43:15.395Z,3.90
2022-08-03T22:47:05.026Z,4.10
2022-08-03T22:54:55.951Z,4.30
2022-08-03T22:58:45.489Z,4.30
2022-08-03T23:02:35.746Z,4.30
2022-08-03T23:06:25.813Z,4.10
2022-08-03T23:10:15.664Z,4.30
2022-08-03T23:14:07.156Z,3.90
2022-08-03T23:26:02.070Z,4.20
2022-08-03T23:29:51.325Z,4.20
2022-08-03T23:38:04.712Z,4.10
2022-08-03T23:41:55.886Z,4.30
2022-08-03T23:45:45.435Z,4.40
2022-08-03T23:49:35.046Z,4.10
2022-08-03T23:53:38.977Z,4.60
